Time;durP1;ratioP1;P1;durP2;ratioP2;P2;SDS_P1;SDS_P2;PMS_P1;PMS_P2;Temp;Humidity;BMP_temperature;BMP_pressure;BME280_temperature;BME280_humidity;BME280_pressure;Samples;Min_cycle;Max_cycle;Signal;HPM_P1;HPM_P2
2022/03/05 00:01:15;;;;;;;46.70;42.70;;;;;;;0.89;79.77;98242.27;105507;1281;25430;-77
2022/03/05 00:03:43;;;;;;;43.50;39.80;;;;;;;0.88;79.66;98239.42;105620;1281;22704;-82
2022/03/05 00:06:11;;;;;;;45.10;41.20;;;;;;;0.86;79.73;98242.48;106001;1281;23200;-77
2022/03/05 00:08:39;;;;;;;44.00;40.10;;;;;;;0.81;79.57;98237.30;105897;1281;22785;-77
2022/03/05 00:11:07;;;;;;;40.40;36.90;;;;;;;0.80;79.39;98243.79;105581;1281;24248;-77
2022/03/05 00:13:38;;;;;;;42.00;38.40;;;;;;;0.83;79.43;98241.25;105855;1281;22697;-79
2022/03/05 00:16:06;;;;;;;42.30;38.80;;;;;;;0.86;79.51;98241.57;105977;1281;24453;-76
2022/03/05 00:18:34;;;;;;;43.60;39.70;;;;;;;0.86;79.27;98243.09;105698;1281;22597;-78
2022/03/05 00:21:03;;;;;;;49.20;44.70;;;;;;;0.85;79.35;98240.98;105832;1280;22587;-78
2022/03/05 00:23:31;;;;;;;44.30;40.50;;;;;;;0.85;79.61;98242.91;105792;1280;25371;-78
2022/03/05 00:25:59;;;;;;;47.60;43.60;;;;;;;0.84;79.70;98242.79;105951;1280;25532;-77
2022/03/05 00:28:26;;;;;;;45.60;41.60;;;;;;;0.85;79.64;98242.98;105625;1280;22716;-78
2022/03/05 00:30:58;;;;;;;48.00;43.90;;;;;;;0.87;79.56;98245.45;105660;1280;22541;-78
2022/03/05 00:33:27;;;;;;;46.50;42.70;;;;;;;0.89;79.46;98243.16;105994;1281;24486;-77
2022/03/05 00:35:55;;;;;;;49.50;45.10;;;;;;;0.95;79.54;98241.81;105846;1280;25554;-78
2022/03/05 00:38:23;;;;;;;46.90;42.80;;;;;;;0.99;79.79;98244.31;105748;1280;24343;-78
2022/03/05 00:40:50;;;;;;;49.30;45.10;;;;;;;1.01;79.55;98246.05;105944;1281;22567;-77
2022/03/05 00:43:19;;;;;;;48.30;44.10;;;;;;;1.02;79.71;98246.23;105938;1279;22622;-77
2022/03/05 00:45:47;;;;;;;49.10;44.90;;;;;;;1.03;79.70;98245.04;105703;1280;22708;-77
2022/03/05 00:48:15;;;;;;;48.60;44.30;;;;;;;1.02;79.63;98237.00;105801;1279;24514;-76
2022/03/05 00:50:43;;;;;;;52.40;47.50;;;;;;;1.02;79.33;98241.98;105686;1281;22692;-77
2022/03/05 00:53:12;;;;;;;48.70;44.50;;;;;;;1.01;79.22;98241.92;105901;1281;24295;-78
2022/03/05 00:55:40;;;;;;;43.80;39.80;;;;;;;1.01;79.13;98234.74;106023;1278;22702;-79
2022/03/05 00:58:09;;;;;;;44.30;40.50;;;;;;;0.99;79.33;98237.94;106101;1278;22722;-78
2022/03/05 01:00:36;;;;;;;47.70;43.70;;;;;;;0.99;79.38;98239.63;105979;1277;22558;-78
2022/03/05 01:03:05;;;;;;;46.30;42.20;;;;;;;0.96;79.23;98236.90;105897;1278;22537;-77
2022/03/05 01:05:33;;;;;;;46.20;42.30;;;;;;;0.86;79.13;98237.16;105734;1277;22617;-76
2022/03/05 01:08:01;;;;;;;41.20;37.60;;;;;;;0.80;79.18;98239.54;105956;1278;22570;-76
2022/03/05 01:10:29;;;;;;;42.10;38.10;;;;;;;0.91;81.82;98241.02;106030;1277;22618;-78
2022/03/05 01:12:57;;;;;;;41.60;37.90;;;;;;;0.98;79.77;98239.08;105893;1277;22858;-78
2022/03/05 01:15:25;;;;;;;46.00;41.70;;;;;;;0.98;79.20;98240.19;106237;1278;22562;-77
2022/03/05 01:17:53;;;;;;;55.60;50.40;;;;;;;0.92;78.96;98237.56;106221;1281;22855;-79
2022/03/05 01:20:20;;;;;;;58.20;52.80;;;;;;;0.84;79.01;98236.75;105808;1280;23078;-79
2022/03/05 01:22:48;;;;;;;56.40;51.40;;;;;;;0.80;79.31;98234.23;106014;1281;24243;-77
2022/03/05 01:25:16;;;;;;;52.90;48.00;;;;;;;0.77;79.20;98235.10;105519;1281;154902;-77
2022/03/05 01:27:44;;;;;;;51.60;46.90;;;;;;;0.72;79.31;98232.29;105789;1277;22708;-77
2022/03/05 01:30:12;;;;;;;48.20;44.10;;;;;;;0.69;79.37;98232.00;105598;1277;22650;-79
2022/03/05 01:32:41;;;;;;;54.70;49.90;;;;;;;0.68;79.29;98226.78;105948;1277;22566;-79
2022/03/05 01:35:10;;;;;;;58.70;53.40;;;;;;;0.72;79.58;98226.23;106174;1277;23146;-78
2022/03/05 01:37:38;;;;;;;57.00;51.90;;;;;;;0.77;79.74;98221.55;106114;1278;25398;-79
2022/03/05 01:40:06;;;;;;;60.70;55.10;;;;;;;0.79;79.61;98223.88;105858;1277;24240;-78
2022/03/05 01:42:34;;;;;;;55.10;50.40;;;;;;;0.80;79.57;98224.86;105815;1277;23635;-78
2022/03/05 01:45:04;;;;;;;56.80;51.90;;;;;;;0.80;79.71;98223.20;105904;1278;25560;-78
2022/03/05 01:47:32;;;;;;;53.30;48.60;;;;;;;0.77;79.64;98225.41;105899;1278;22702;-79
2022/03/05 01:50:00;;;;;;;53.00;48.30;;;;;;;0.73;79.32;98222.19;105872;1277;22709;-78
2022/03/05 01:52:28;;;;;;;53.50;49.00;;;;;;;0.71;79.23;98220.34;105886;1277;22553;-78
2022/03/05 01:54:56;;;;;;;52.70;48.10;;;;;;;0.70;79.25;98218.27;105895;1277;22713;-77
2022/03/05 01:57:27;;;;;;;54.40;49.80;;;;;;;0.67;79.20;98221.62;105844;1277;22709;-79
2022/03/05 01:59:56;;;;;;;53.70;48.80;;;;;;;0.63;79.23;98217.80;105934;1277;25392;-78
2022/03/05 02:02:26;;;;;;;52.80;48.40;;;;;;;0.54;79.00;98219.90;105938;1277;23534;-80
2022/03/05 02:04:54;;;;;;;51.40;46.80;;;;;;;0.40;79.00;98219.26;105881;1278;25545;-80
2022/03/05 02:07:22;;;;;;;49.20;44.70;;;;;;;0.33;79.02;98218.77;105825;1277;25470;-79
2022/03/05 02:09:51;;;;;;;53.30;48.70;;;;;;;0.29;79.27;98222.27;105669;1278;22617;-79
2022/03/05 02:12:26;;;;;;;52.90;48.40;;;;;;;0.25;79.17;98222.85;105912;1277;25288;-80
2022/03/05 02:14:55;;;;;;;55.60;50.70;;;;;;;0.23;79.33;98222.79;105876;1278;24240;-79
2022/03/05 02:17:23;;;;;;;58.40;53.40;;;;;;;0.22;79.57;98221.70;106003;1277;23370;-79
2022/03/05 02:19:51;;;;;;;58.20;53.30;;;;;;;0.20;79.50;98220.02;105934;1278;22608;-79
2022/03/05 02:22:19;;;;;;;54.70;49.70;;;;;;;0.19;79.45;98221.15;105836;1277;25540;-78
2022/03/05 02:24:51;;;;;;;52.60;48.00;;;;;;;0.20;79.52;98221.28;105904;1277;22696;-79
2022/03/05 02:27:24;;;;;;;53.80;48.90;;;;;;;0.22;79.56;98227.48;105947;1277;22682;-79
2022/03/05 02:29:55;;;;;;;55.20;50.20;;;;;;;0.24;79.56;98225.10;105856;1280;22771;-79
2022/03/05 02:32:24;;;;;;;54.20;49.50;;;;;;;0.28;79.74;98228.86;105933;1277;22553;-79
2022/03/05 02:34:53;;;;;;;64.40;58.80;;;;;;;0.29;79.87;98226.17;105649;1278;25255;-78
2022/03/05 02:37:21;;;;;;;63.50;58.00;;;;;;;0.34;80.00;98228.86;105920;1278;23087;-79
2022/03/05 02:39:49;;;;;;;58.10;52.90;;;;;;;0.36;79.92;98226.41;105986;1278;25293;-78
2022/03/05 02:42:17;;;;;;;55.70;50.50;;;;;;;0.37;79.91;98220.52;105965;1278;22571;-77
2022/03/05 02:44:45;;;;;;;56.20;51.10;;;;;;;0.37;79.65;98225.75;105670;1280;25448;-81
2022/03/05 02:47:14;;;;;;;62.60;57.40;;;;;;;0.37;79.62;98229.54;105771;1277;25400;-77
2022/03/05 02:49:42;;;;;;;55.20;50.40;;;;;;;0.38;79.52;98232.15;105756;1278;22648;-77
2022/03/05 02:52:10;;;;;;;52.80;48.10;;;;;;;0.31;79.59;98235.37;105703;1278;25560;-78
2022/03/05 02:54:38;;;;;;;53.00;48.40;;;;;;;0.23;79.51;98237.11;105831;1277;25328;-77
2022/03/05 02:57:06;;;;;;;50.80;46.40;;;;;;;0.15;79.66;98237.75;105739;1277;23975;-77
2022/03/05 02:59:35;;;;;;;51.60;47.00;;;;;;;0.12;79.67;98236.02;105580;1278;22707;-77
2022/03/05 03:02:03;;;;;;;51.80;47.40;;;;;;;0.16;79.68;98235.90;105677;1278;22571;-77
2022/03/05 03:04:31;;;;;;;61.10;55.70;;;;;;;0.20;79.83;98237.14;105735;1277;24096;-78
2022/03/05 03:06:59;;;;;;;64.20;58.10;;;;;;;0.24;79.83;98238.29;105727;1277;22617;-78
2022/03/05 03:09:28;;;;;;;57.20;52.20;;;;;;;0.25;79.91;98239.38;105969;1277;25557;-78
2022/03/05 03:11:56;;;;;;;56.10;51.30;;;;;;;0.24;79.94;98238.52;105993;1278;25414;-78
2022/03/05 03:14:24;;;;;;;54.30;49.60;;;;;;;0.27;80.17;98238.95;105969;1277;25375;-78
2022/03/05 03:16:52;;;;;;;53.90;49.20;;;;;;;0.29;79.94;98234.47;106013;1277;25395;-78
2022/03/05 03:19:19;;;;;;;54.90;49.80;;;;;;;0.35;80.08;98234.62;105957;1277;22827;-77
2022/03/05 03:21:47;;;;;;;55.20;50.20;;;;;;;0.41;80.24;98236.34;105983;1278;22562;-78
2022/03/05 03:24:15;;;;;;;53.80;49.10;;;;;;;0.43;79.79;98243.68;105921;1278;25448;-79
2022/03/05 03:26:45;;;;;;;52.80;48.30;;;;;;;0.38;79.65;98241.32;105955;1277;25439;-79
2022/03/05 03:29:13;;;;;;;51.80;47.20;;;;;;;0.27;79.59;98237.73;105978;1277;25445;-78
2022/03/05 03:31:41;;;;;;;50.20;45.80;;;;;;;0.19;79.67;98238.95;105931;1278;24311;-79
2022/03/05 03:34:09;;;;;;;48.60;44.30;;;;;;;0.15;79.69;98245.04;105910;1277;22625;-78
2022/03/05 03:36:37;;;;;;;53.80;49.10;;;;;;;0.16;79.71;98243.85;105952;1278;22645;-78
2022/03/05 03:39:05;;;;;;;53.00;48.30;;;;;;;0.20;79.85;98246.84;105955;1277;22612;-79
2022/03/05 03:41:33;;;;;;;55.30;50.60;;;;;;;0.23;80.02;98246.96;105947;1277;24437;-77
2022/03/05 03:44:05;;;;;;;54.20;49.50;;;;;;;0.23;79.92;98248.48;105959;1277;24365;-78
2022/03/05 03:46:33;;;;;;;52.20;47.60;;;;;;;0.21;79.85;98248.02;105944;1278;22586;-77
2022/03/05 03:49:03;;;;;;;51.60;47.00;;;;;;;0.17;79.90;98251.36;105747;1277;23031;-77
2022/03/05 03:51:30;;;;;;;49.60;45.00;;;;;;;0.15;80.07;98254.27;105997;1277;25338;-77
2022/03/05 03:54:01;;;;;;;47.40;43.10;;;;;;;0.14;80.03;98256.88;105979;1277;25264;-77
2022/03/05 03:56:29;;;;;;;55.00;50.20;;;;;;;0.16;80.03;98256.68;105833;1280;24427;-78
2022/03/05 03:58:57;;;;;;;48.80;44.50;;;;;;;0.20;80.18;98257.69;105913;1277;25509;-78
2022/03/05 04:01:25;;;;;;;47.10;42.90;;;;;;;0.22;80.12;98253.51;105885;1277;25379;-76
2022/03/05 04:03:53;;;;;;;51.00;46.70;;;;;;;0.21;79.89;98258.21;105723;1278;24373;-77
2022/03/05 04:06:21;;;;;;;49.90;45.20;;;;;;;0.17;79.83;98257.20;105846;1278;24311;-77
2022/03/05 04:08:48;;;;;;;56.00;50.80;;;;;;;0.12;79.83;98257.95;105650;1277;22809;-77
2022/03/05 04:11:18;;;;;;;55.70;50.60;;;;;;;0.11;79.99;98257.32;105815;1278;22772;-77
2022/03/05 04:13:47;;;;;;;46.90;42.70;;;;;;;0.11;79.75;98256.05;105692;1277;22551;-78
2022/03/05 04:16:15;;;;;;;48.20;44.00;;;;;;;0.11;79.72;98257.85;105892;1277;22567;-78
2022/03/05 04:18:42;;;;;;;53.50;48.70;;;;;;;0.10;79.80;98255.98;105987;1277;23204;-78
2022/03/05 04:21:10;;;;;;;52.20;47.70;;;;;;;0.08;79.91;98255.06;105983;1277;22575;-77
2022/03/05 04:23:38;;;;;;;50.60;46.20;;;;;;;0.11;80.26;98259.23;105605;1277;22730;-77
2022/03/05 04:26:06;;;;;;;46.40;42.30;;;;;;;0.11;80.12;98260.77;105730;1277;22573;-78
2022/03/05 04:28:34;;;;;;;48.00;43.60;;;;;;;0.07;79.91;98261.77;105805;1277;24139;-78
2022/03/05 04:31:02;;;;;;;44.60;40.70;;;;;;;0.03;79.94;98261.01;105966;1278;22586;-78
2022/03/05 04:33:30;;;;;;;43.90;39.90;;;;;;;0.01;79.94;98261.24;106050;1277;24425;-78
2022/03/05 04:35:57;;;;;;;39.50;36.10;;;;;;;0.03;79.96;98261.04;105980;1277;22668;-77
2022/03/05 04:38:25;;;;;;;42.20;38.50;;;;;;;0.05;79.92;98263.73;105912;1277;22688;-78
2022/03/05 04:40:54;;;;;;;38.20;35.00;;;;;;;0.04;79.97;98260.46;105700;1278;22552;-78
2022/03/05 04:43:22;;;;;;;40.20;36.60;;;;;;;0.00;79.97;98262.34;105828;1277;22546;-77
2022/03/05 04:45:50;;;;;;;41.90;38.20;;;;;;;-0.02;80.12;98265.88;105565;1277;22560;-77
2022/03/05 04:48:18;;;;;;;44.60;40.50;;;;;;;-0.05;79.99;98265.52;105537;1277;22552;-79
2022/03/05 04:50:48;;;;;;;42.00;38.30;;;;;;;-0.10;79.91;98265.34;105804;1277;25533;-79
2022/03/05 04:53:19;;;;;;;43.70;39.40;;;;;;;-0.12;79.82;98268.55;105883;1277;22612;-77
2022/03/05 04:55:48;;;;;;;39.70;36.10;;;;;;;-0.13;79.78;98271.44;106049;1277;25701;-79
2022/03/05 04:58:17;;;;;;;38.90;35.60;;;;;;;-0.11;79.68;98275.84;105727;1277;22655;-78
2022/03/05 05:00:46;;;;;;;38.10;34.50;;;;;;;-0.15;79.53;98272.60;105958;1277;22688;-77
2022/03/05 05:03:14;;;;;;;40.30;36.70;;;;;;;-0.20;79.46;98273.61;105810;1277;25397;-78
2022/03/05 05:05:42;;;;;;;68.60;60.60;;;;;;;-0.26;79.70;98276.39;106068;1277;22688;-78
2022/03/05 05:08:11;;;;;;;54.60;49.20;;;;;;;-0.32;79.58;98280.58;105745;1277;22978;-79
2022/03/05 05:10:39;;;;;;;68.60;57.20;;;;;;;-0.38;79.63;98284.23;105857;1278;24464;-78
2022/03/05 05:13:06;;;;;;;119.00;70.10;;;;;;;-0.40;79.64;98286.64;105854;1277;23955;-77
2022/03/05 05:15:34;;;;;;;73.70;63.40;;;;;;;-0.39;79.57;98285.42;105735;1277;23033;-77
2022/03/05 05:18:02;;;;;;;63.20;56.80;;;;;;;-0.37;79.58;98292.59;105767;1277;22670;-79
2022/03/05 05:20:30;;;;;;;50.00;45.10;;;;;;;-0.37;79.61;98293.23;105743;1277;24228;-79
2022/03/05 05:22:58;;;;;;;60.70;54.30;;;;;;;-0.37;79.67;98295.80;105956;1278;22565;-78
2022/03/05 05:25:26;;;;;;;106.70;81.00;;;;;;;-0.40;79.73;98298.81;105978;1278;23265;-78
2022/03/05 05:27:55;;;;;;;101.50;86.30;;;;;;;-0.44;79.69;98296.73;105737;1278;22707;-77
2022/03/05 05:30:22;;;;;;;64.50;58.50;;;;;;;-0.49;79.68;98298.11;105850;1278;22584;-78
2022/03/05 05:32:50;;;;;;;56.50;51.20;;;;;;;-0.52;79.59;98297.59;105983;1278;22653;-78
2022/03/05 05:35:19;;;;;;;42.70;38.60;;;;;;;-0.50;79.90;98295.59;105951;1278;25319;-79
2022/03/05 05:37:47;;;;;;;39.10;35.50;;;;;;;-0.45;79.80;98299.50;105871;1278;22711;-79
2022/03/05 05:40:15;;;;;;;48.60;44.40;;;;;;;-0.44;79.62;98297.70;105836;1277;24509;-78
2022/03/05 05:42:43;;;;;;;45.70;41.70;;;;;;;-0.42;79.68;98302.33;105760;1277;25315;-78
2022/03/05 05:45:12;;;;;;;45.30;41.30;;;;;;;-0.41;79.89;98301.42;105739;1278;25432;-79
2022/03/05 05:47:40;;;;;;;44.50;40.50;;;;;;;-0.43;79.79;98307.34;106008;1278;22535;-79
2022/03/05 05:50:08;;;;;;;44.80;40.70;;;;;;;-0.49;79.51;98307.69;105785;1277;22665;-77
2022/03/05 05:52:36;;;;;;;52.00;47.40;;;;;;;-0.56;79.53;98305.09;105866;1278;22554;-79
2022/03/05 05:55:04;;;;;;;47.00;43.10;;;;;;;-0.58;79.72;98308.27;105975;1277;25147;-78
2022/03/05 05:57:32;;;;;;;45.90;41.90;;;;;;;-0.56;79.67;98310.64;105960;1278;22626;-79
2022/03/05 06:00:00;;;;;;;44.80;40.90;;;;;;;-0.53;79.73;98310.40;105959;1277;24292;-78
2022/03/05 06:02:28;;;;;;;45.30;41.40;;;;;;;-0.48;79.65;98310.58;105847;1277;24240;-79
2022/03/05 06:04:56;;;;;;;50.50;46.30;;;;;;;-0.45;79.85;98314.66;105759;1280;23229;-78
2022/03/05 06:07:24;;;;;;;41.30;37.70;;;;;;;-0.42;79.71;98314.63;105708;1278;22750;-78
2022/03/05 06:09:51;;;;;;;45.40;41.30;;;;;;;-0.42;79.49;98314.42;105858;1277;24444;-78
2022/03/05 06:12:20;;;;;;;46.00;41.90;;;;;;;-0.42;79.67;98317.27;106020;1277;25287;-79
2022/03/05 06:14:47;;;;;;;47.30;43.30;;;;;;;-0.42;79.61;98316.54;106011;1277;22614;-78
2022/03/05 06:17:15;;;;;;;47.30;43.00;;;;;;;-0.40;79.75;98317.39;106021;1277;23233;-78
2022/03/05 06:19:44;;;;;;;43.70;39.70;;;;;;;-0.38;79.74;98320.05;106014;1277;25429;-79
2022/03/05 06:22:12;;;;;;;37.40;34.00;;;;;;;-0.32;79.57;98317.84;106009;1278;25434;-79
2022/03/05 06:24:40;;;;;;;39.50;36.10;;;;;;;-0.28;79.53;98322.53;105977;1277;25468;-79
2022/03/05 06:27:07;;;;;;;40.30;36.80;;;;;;;-0.26;79.54;98323.94;105981;1277;22671;-78
2022/03/05 06:29:35;;;;;;;42.00;38.40;;;;;;;-0.23;79.52;98327.45;105983;1277;24220;-78
2022/03/05 06:32:04;;;;;;;41.00;37.60;;;;;;;-0.20;79.58;98330.48;105989;1277;24458;-77
2022/03/05 06:34:32;;;;;;;44.50;40.70;;;;;;;-0.18;79.49;98334.40;105794;1277;24433;-77
2022/03/05 06:37:00;;;;;;;41.10;37.50;;;;;;;-0.17;79.52;98336.44;105952;1277;22541;-78
2022/03/05 06:39:28;;;;;;;32.30;29.30;;;;;;;-0.15;79.51;98334.09;105716;1278;22708;-77
2022/03/05 06:41:57;;;;;;;34.20;31.20;;;;;;;-0.13;79.29;98337.22;105825;1277;24093;-78
2022/03/05 06:44:25;;;;;;;37.30;33.90;;;;;;;-0.11;79.24;98343.39;105869;1278;24448;-78
2022/03/05 06:46:53;;;;;;;36.30;33.10;;;;;;;-0.09;79.13;98342.04;105813;1277;22708;-78
2022/03/05 06:49:21;;;;;;;41.10;37.50;;;;;;;-0.08;78.99;98347.40;105746;1278;23333;-78
2022/03/05 06:51:49;;;;;;;43.20;39.10;;;;;;;-0.07;79.13;98350.55;105695;1278;26077;-83
2022/03/05 06:54:17;;;;;;;38.00;34.50;;;;;;;-0.06;79.09;98352.06;106055;1277;22677;-79
2022/03/05 06:56:45;;;;;;;38.40;35.10;;;;;;;-0.06;78.89;98353.81;105950;1278;22645;-79
2022/03/05 06:59:13;;;;;;;36.90;33.60;;;;;;;-0.06;79.01;98353.66;105878;1277;22788;-79
2022/03/05 07:01:41;;;;;;;38.60;35.20;;;;;;;-0.06;78.91;98352.11;105848;1278;22728;-78
2022/03/05 07:04:10;;;;;;;31.80;29.00;;;;;;;-0.09;78.45;98350.38;105974;1277;22695;-79
2022/03/05 07:06:38;;;;;;;29.30;26.60;;;;;;;-0.11;78.54;98349.55;105994;1278;24393;-79
2022/03/05 07:09:06;;;;;;;29.40;26.60;;;;;;;-0.06;78.68;98354.17;105978;1278;25312;-79
2022/03/05 07:11:33;;;;;;;30.00;27.40;;;;;;;0.02;78.76;98353.58;105862;1278;24323;-78
2022/03/05 07:14:02;;;;;;;29.80;27.20;;;;;;;0.09;78.81;98352.96;105983;1278;25487;-78
2022/03/05 07:16:30;;;;;;;31.90;29.10;;;;;;;0.13;78.68;98349.30;106106;1277;25356;-77
2022/03/05 07:18:58;;;;;;;28.50;26.00;;;;;;;0.16;78.69;98350.91;105573;1280;22560;-82
2022/03/05 07:21:26;;;;;;;31.30;28.50;;;;;;;0.15;78.11;98350.66;105833;1277;24234;-78
2022/03/05 07:23:53;;;;;;;31.60;28.80;;;;;;;0.12;78.23;98354.41;105705;1278;25429;-78
2022/03/05 07:26:21;;;;;;;30.80;28.30;;;;;;;0.14;78.37;98356.27;105805;1277;24495;-78
2022/03/05 07:28:50;;;;;;;28.70;26.10;;;;;;;0.18;78.49;98350.11;106061;1278;22876;-78
2022/03/05 07:31:18;;;;;;;28.00;25.60;;;;;;;0.23;78.31;98353.80;105974;1277;22743;-79
2022/03/05 07:33:46;;;;;;;29.50;27.10;;;;;;;0.29;78.31;98358.92;105869;1278;22550;-78
2022/03/05 07:36:14;;;;;;;28.20;25.60;;;;;;;0.36;77.60;98360.70;105753;1278;22576;-78
2022/03/05 07:38:44;;;;;;;27.30;24.90;;;;;;;0.44;77.90;98359.52;105906;1275;23208;-78
2022/03/05 07:41:13;;;;;;;26.90;24.40;;;;;;;0.48;77.76;98365.64;105872;1278;24148;-78
2022/03/05 07:43:41;;;;;;;26.70;24.30;;;;;;;0.51;77.51;98366.96;105993;1277;22783;-79
2022/03/05 07:46:10;;;;;;;24.70;22.40;;;;;;;0.55;77.86;98370.94;105992;1277;25421;-78
2022/03/05 07:48:38;;;;;;;26.60;24.30;;;;;;;0.62;77.84;98369.59;105836;1280;25243;-79
2022/03/05 07:51:06;;;;;;;24.90;22.70;;;;;;;0.71;77.99;98373.11;105734;1278;22615;-78
2022/03/05 07:53:34;;;;;;;22.60;20.50;;;;;;;0.82;77.48;98374.31;105995;1277;24243;-77
2022/03/05 07:56:01;;;;;;;22.30;20.30;;;;;;;0.89;77.33;98371.00;105843;1278;22557;-78
2022/03/05 07:58:29;;;;;;;23.70;21.60;;;;;;;1.05;77.62;98372.67;105836;1278;24411;-76
2022/03/05 08:00:58;;;;;;;23.90;21.90;;;;;;;1.23;77.52;98371.02;106012;1277;23377;-79
2022/03/05 08:03:26;;;;;;;24.40;22.20;;;;;;;1.40;77.35;98370.81;106018;1278;24114;-79
2022/03/05 08:05:55;;;;;;;24.30;21.90;;;;;;;1.49;76.97;98370.52;105678;1280;22623;-78
2022/03/05 08:08:23;;;;;;;22.60;20.50;;;;;;;1.55;76.62;98376.39;106460;1278;25398;-78
2022/03/05 08:10:51;;;;;;;22.60;20.60;;;;;;;1.59;76.44;98379.19;107598;1277;25374;-77
2022/03/05 08:13:19;;;;;;;20.40;18.60;;;;;;;1.67;76.60;98383.71;107728;1277;22619;-78
2022/03/05 08:15:49;;;;;;;19.90;18.10;;;;;;;1.77;76.53;98388.50;108268;1277;22716;-78
2022/03/05 08:18:17;;;;;;;22.10;19.90;;;;;;;1.78;75.91;98391.46;107718;1277;22745;-78
2022/03/05 08:20:45;;;;;;;18.00;16.30;;;;;;;1.76;75.61;98388.94;107915;1280;24409;-79
2022/03/05 08:23:13;;;;;;;16.60;15.00;;;;;;;1.79;75.67;98390.64;106126;1279;24289;-79
2022/03/05 08:25:41;;;;;;;17.10;15.50;;;;;;;1.80;74.22;98387.19;106117;1280;23229;-81
2022/03/05 08:28:09;;;;;;;19.60;17.70;;;;;;;1.72;74.25;98387.91;106261;1278;24314;-79
2022/03/05 08:30:37;;;;;;;15.80;14.30;;;;;;;1.68;74.36;98388.67;106165;1278;23305;-79
2022/03/05 08:33:05;;;;;;;13.80;12.50;;;;;;;1.69;74.58;98390.02;105899;1277;24237;-83
2022/03/05 08:35:33;;;;;;;13.40;12.20;;;;;;;1.72;74.48;98388.38;106104;1280;22535;-78
2022/03/05 08:38:01;;;;;;;15.50;13.90;;;;;;;1.77;74.58;98392.44;105894;1280;23903;-78
2022/03/05 08:40:30;;;;;;;14.30;12.80;;;;;;;1.82;74.29;98393.62;106055;1280;24705;-79
2022/03/05 08:42:58;;;;;;;12.60;11.30;;;;;;;1.84;73.71;98387.23;105961;1280;25572;-78
2022/03/05 08:45:32;;;;;;;13.50;9.90;;;;;;;1.84;72.83;98386.27;105944;1280;22553;-77
2022/03/05 08:48:00;;;;;;;11.80;10.70;;;;;;;1.80;72.97;98388.05;105716;1279;25307;-78
2022/03/05 08:50:30;;;;;;;11.20;10.00;;;;;;;1.84;72.98;98388.55;106012;1280;22554;-78
2022/03/05 08:52:59;;;;;;;12.80;11.50;;;;;;;1.86;73.05;98388.39;105830;1280;23067;-80
2022/03/05 08:55:27;;;;;;;25.60;20.80;;;;;;;1.95;72.17;98388.32;105873;1280;22561;-79
2022/03/05 08:57:55;;;;;;;13.10;11.60;;;;;;;2.01;70.85;98389.00;106475;1280;25380;-79
2022/03/05 09:00:24;;;;;;;11.00;10.00;;;;;;;2.06;71.20;98391.14;106159;1279;24252;-78
2022/03/05 09:02:52;;;;;;;16.90;15.10;;;;;;;2.11;71.41;98393.23;105813;1280;25397;-80
2022/03/05 09:05:20;;;;;;;12.20;10.90;;;;;;;2.06;67.65;98391.04;105731;1280;24456;-79
2022/03/05 09:07:48;;;;;;;10.60;8.40;;;;;;;1.95;68.16;98394.70;105888;1280;22799;-78
2022/03/05 09:10:16;;;;;;;8.30;7.30;;;;;;;1.96;69.79;98401.10;105755;1279;22758;-79
2022/03/05 09:12:44;;;;;;;9.10;8.10;;;;;;;2.00;69.30;98405.77;105863;1279;22566;-79
2022/03/05 09:15:12;;;;;;;11.40;10.20;;;;;;;2.04;69.73;98405.02;105459;1280;22601;-79
2022/03/05 09:17:40;;;;;;;10.00;9.10;;;;;;;2.07;69.52;98403.17;106030;1280;22553;-79
2022/03/05 09:20:09;;;;;;;10.10;8.80;;;;;;;2.07;69.19;98403.08;105742;1280;25377;-79
2022/03/05 09:22:38;;;;;;;9.50;8.60;;;;;;;2.08;68.83;98401.60;105657;1280;23408;-79
2022/03/05 09:25:06;;;;;;;9.30;8.40;;;;;;;2.08;68.60;98395.63;106014;1280;24359;-78
2022/03/05 09:27:35;;;;;;;9.60;8.50;;;;;;;2.06;68.16;98398.52;105677;1280;26533;-77
2022/03/05 09:30:05;;;;;;;9.20;7.40;;;;;;;2.09;68.29;98393.98;105832;1280;24270;-78
2022/03/05 09:32:33;;;;;;;11.50;9.90;;;;;;;2.11;68.18;98398.23;105913;1280;22672;-78
2022/03/05 09:35:03;;;;;;;10.70;9.60;;;;;;;2.12;67.54;98406.63;105704;1280;24244;-77
2022/03/05 09:37:33;;;;;;;14.00;10.40;;;;;;;2.08;67.37;98403.88;106001;1277;22806;-76
2022/03/05 09:40:03;;;;;;;15.10;13.40;;;;;;;2.11;67.77;98405.13;105799;1280;24365;-76
2022/03/05 09:42:31;;;;;;;11.90;9.90;;;;;;;2.17;67.79;98402.55;105734;1280;22619;-77
2022/03/05 09:44:59;;;;;;;14.00;9.70;;;;;;;2.15;67.44;98404.38;105849;1279;23189;-78
2022/03/05 09:47:27;;;;;;;12.00;8.90;;;;;;;2.19;67.31;98404.55;105961;1280;22683;-77
2022/03/05 09:49:56;;;;;;;9.60;8.60;;;;;;;2.24;67.19;98399.80;105991;1280;22659;-77
2022/03/05 09:52:24;;;;;;;13.50;9.90;;;;;;;2.29;67.11;98405.80;106015;1280;22643;-78
2022/03/05 09:54:51;;;;;;;11.30;8.50;;;;;;;2.35;66.97;98406.46;106210;1280;22669;-77
2022/03/05 09:57:19;;;;;;;11.40;10.30;;;;;;;2.35;66.68;98405.64;105862;1280;25503;-78
2022/03/05 09:59:47;;;;;;;14.00;12.70;;;;;;;2.34;66.18;98412.60;105766;1280;22711;-79
2022/03/05 10:02:17;;;;;;;14.90;13.40;;;;;;;2.30;65.70;98416.79;105728;1280;22563;-80
2022/03/05 10:04:45;;;;;;;13.30;11.80;;;;;;;2.22;65.25;98422.17;105943;1280;22551;-78
2022/03/05 10:07:15;;;;;;;17.10;15.40;;;;;;;2.11;65.41;98425.27;105902;1280;25380;-78
2022/03/05 10:09:46;;;;;;;15.80;14.20;;;;;;;2.05;65.47;98424.30;105985;1280;25782;-78
2022/03/05 10:12:32;;;;;;;15.40;13.00;;;;;;;1.99;64.96;98428.08;105973;1280;24429;-78
2022/03/05 10:15:17;;;;;;;15.30;13.70;;;;;;;1.95;65.37;98428.27;105828;1280;25561;-78
2022/03/05 10:17:55;;;;;;;29.00;26.00;;;;;;;1.93;65.44;98423.85;105740;1280;25432;-79
2022/03/05 10:20:26;;;;;;;19.00;15.70;;;;;;;1.92;65.27;98422.72;105674;1280;22541;-79
2022/03/05 10:23:00;;;;;;;15.60;14.10;;;;;;;2.03;65.46;98422.00;105904;1280;22565;-80
2022/03/05 10:25:52;;;;;;;12.30;11.10;;;;;;;2.25;65.37;98420.77;105970;1280;25530;-83
2022/03/05 10:28:25;;;;;;;13.80;12.00;;;;;;;2.41;64.07;98414.95;105982;1280;25383;-80
2022/03/05 10:30:55;;;;;;;13.90;12.50;;;;;;;2.44;64.28;98414.33;105972;1280;24506;-79
2022/03/05 10:33:34;;;;;;;12.60;11.40;;;;;;;2.49;64.28;98419.10;105922;1280;22532;-77
2022/03/05 10:36:08;;;;;;;12.30;11.10;;;;;;;2.54;64.12;98416.66;105944;1280;25383;-78
2022/03/05 10:38:47;;;;;;;;;;;;;;;2.55;63.78;98426.10;105825;1280;22521;-77
2022/03/05 10:41:19;;;;;;;12.70;11.40;;;;;;;2.47;63.09;98423.23;105831;1280;24384;-77
2022/03/05 10:44:04;;;;;;;15.00;11.50;;;;;;;2.42;62.04;98425.45;105689;1280;24407;-77
2022/03/05 10:46:56;;;;;;;13.90;12.60;;;;;;;2.31;62.92;98426.59;105745;1280;22764;-76
2022/03/05 10:49:31;;;;;;;16.40;14.80;;;;;;;2.27;63.17;98427.84;105598;1280;22550;-77
2022/03/05 10:52:02;;;;;;;17.70;15.90;;;;;;;2.28;62.98;98426.32;105835;1280;22866;-77
2022/03/05 10:54:37;;;;;;;14.50;13.10;;;;;;;2.20;62.50;98422.73;105953;1280;24466;-79
2022/03/05 10:57:14;;;;;;;17.40;14.20;;;;;;;2.14;62.97;98422.48;105979;1280;22598;-79
2022/03/05 10:59:45;;;;;;;20.60;11.60;;;;;;;2.18;62.91;98420.44;105897;1280;22738;-80
2022/03/05 11:02:16;;;;;;;21.30;11.30;;;;;;;2.20;62.47;98422.81;105972;1280;22563;-81
2022/03/05 11:04:46;;;;;;;18.10;13.70;;;;;;;2.25;62.93;98423.10;105999;1280;22572;-79
2022/03/05 11:07:16;;;;;;;14.20;12.90;;;;;;;2.34;62.35;98421.19;105975;1280;24512;-79
2022/03/05 11:09:47;;;;;;;13.60;12.30;;;;;;;2.38;62.24;98419.45;105970;1280;22535;-79
2022/03/05 11:12:17;;;;;;;13.10;11.70;;;;;;;2.38;61.98;98419.34;106034;1280;22769;-79
2022/03/05 11:14:46;;;;;;;12.70;11.40;;;;;;;2.36;62.07;98418.04;105997;1280;25976;-82
2022/03/05 11:17:15;;;;;;;13.80;12.40;;;;;;;2.35;61.44;98420.17;105678;1280;23114;-79
2022/03/05 11:19:43;;;;;;;19.40;17.00;;;;;;;2.25;59.33;98424.44;105936;1280;24458;-80
2022/03/05 11:22:16;;;;;;;21.40;19.10;;;;;;;2.02;59.06;98419.70;105848;1280;24545;-79
2022/03/05 11:24:44;;;;;;;22.20;19.30;;;;;;;1.82;58.25;98419.61;105843;1280;25437;-79